sensor_id;sensor_type;location;lat;lon;timestamp;P1;durP1;ratioP1;P2;durP2;ratioP2
36855;SDS011;22788;51.434;6.786;2023-02-22T00:00:37;36.50;;;18.73;;
36855;SDS011;22788;51.434;6.786;2023-02-22T00:03:03;39.73;;;19.87;;
36855;SDS011;22788;51.434;6.786;2023-02-22T00:05:29;36.57;;;18.33;;
36855;SDS011;22788;51.434;6.786;2023-02-22T00:07:56;41.90;;;21.10;;
36855;SDS011;22788;51.434;6.786;2023-02-22T00:10:23;34.80;;;17.53;;
36855;SDS011;22788;51.434;6.786;2023-02-22T00:12:50;39.83;;;18.67;;
36855;SDS011;22788;51.434;6.786;2023-02-22T00:15:18;34.77;;;17.13;;
36855;SDS011;22788;51.434;6.786;2023-02-22T00:17:45;37.93;;;18.70;;
36855;SDS011;22788;51.434;6.786;2023-02-22T00:20:12;38.70;;;18.83;;
36855;SDS011;22788;51.434;6.786;2023-02-22T00:22:40;35.97;;;18.23;;
36855;SDS011;22788;51.434;6.786;2023-02-22T00:25:07;39.30;;;18.37;;
36855;SDS011;22788;51.434;6.786;2023-02-22T00:27:35;36.53;;;17.97;;
36855;SDS011;22788;51.434;6.786;2023-02-22T00:30:01;34.23;;;17.00;;
36855;SDS011;22788;51.434;6.786;2023-02-22T00:32:28;35.20;;;17.67;;
36855;SDS011;22788;51.434;6.786;2023-02-22T00:34:54;44.17;;;20.10;;
36855;SDS011;22788;51.434;6.786;2023-02-22T00:37:20;37.30;;;18.37;;
36855;SDS011;22788;51.434;6.786;2023-02-22T00:39:47;38.57;;;19.10;;
36855;SDS011;22788;51.434;6.786;2023-02-22T00:42:13;38.67;;;18.27;;
36855;SDS011;22788;51.434;6.786;2023-02-22T00:44:41;36.77;;;19.20;;
36855;SDS011;22788;51.434;6.786;2023-02-22T00:47:07;36.97;;;18.73;;
36855;SDS011;22788;51.434;6.786;2023-02-22T00:49:34;38.20;;;20.50;;
36855;SDS011;22788;51.434;6.786;2023-02-22T00:52:01;40.13;;;19.03;;
36855;SDS011;22788;51.434;6.786;2023-02-22T00:54:27;38.70;;;18.63;;
36855;SDS011;22788;51.434;6.786;2023-02-22T00:56:53;42.27;;;20.00;;
36855;SDS011;22788;51.434;6.786;2023-02-22T00:59:19;38.83;;;18.00;;
36855;SDS011;22788;51.434;6.786;2023-02-22T01:01:47;36.53;;;18.30;;
36855;SDS011;22788;51.434;6.786;2023-02-22T01:04:13;34.17;;;18.40;;
36855;SDS011;22788;51.434;6.786;2023-02-22T01:06:39;35.60;;;18.27;;
36855;SDS011;22788;51.434;6.786;2023-02-22T01:09:05;34.97;;;16.53;;
36855;SDS011;22788;51.434;6.786;2023-02-22T01:11:31;35.50;;;18.50;;
36855;SDS011;22788;51.434;6.786;2023-02-22T01:13:57;34.90;;;18.07;;
36855;SDS011;22788;51.434;6.786;2023-02-22T01:16:23;34.80;;;17.80;;
36855;SDS011;22788;51.434;6.786;2023-02-22T01:18:51;39.27;;;18.83;;
36855;SDS011;22788;51.434;6.786;2023-02-22T01:21:17;33.27;;;17.37;;
36855;SDS011;22788;51.434;6.786;2023-02-22T01:23:43;39.00;;;19.83;;
36855;SDS011;22788;51.434;6.786;2023-02-22T01:26:10;38.43;;;19.13;;
36855;SDS011;22788;51.434;6.786;2023-02-22T01:28:36;35.27;;;18.30;;
36855;SDS011;22788;51.434;6.786;2023-02-22T01:31:03;41.30;;;19.40;;
36855;SDS011;22788;51.434;6.786;2023-02-22T01:33:29;35.47;;;19.17;;
36855;SDS011;22788;51.434;6.786;2023-02-22T01:35:57;42.27;;;20.13;;
36855;SDS011;22788;51.434;6.786;2023-02-22T01:38:24;39.23;;;19.87;;
36855;SDS011;22788;51.434;6.786;2023-02-22T01:40:50;38.00;;;18.47;;
36855;SDS011;22788;51.434;6.786;2023-02-22T01:43:18;37.83;;;18.40;;
36855;SDS011;22788;51.434;6.786;2023-02-22T01:45:52;34.17;;;17.70;;
36855;SDS011;22788;51.434;6.786;2023-02-22T01:48:22;34.50;;;18.83;;
36855;SDS011;22788;51.434;6.786;2023-02-22T01:50:55;40.70;;;19.23;;
36855;SDS011;22788;51.434;6.786;2023-02-22T01:53:26;34.90;;;17.80;;
36855;SDS011;22788;51.434;6.786;2023-02-22T01:55:56;35.07;;;16.77;;
36855;SDS011;22788;51.434;6.786;2023-02-22T01:58:23;35.97;;;18.40;;
36855;SDS011;22788;51.434;6.786;2023-02-22T02:00:50;32.53;;;18.50;;
36855;SDS011;22788;51.434;6.786;2023-02-22T02:03:17;34.87;;;18.40;;
36855;SDS011;22788;51.434;6.786;2023-02-22T02:05:45;36.07;;;18.67;;
36855;SDS011;22788;51.434;6.786;2023-02-22T02:08:18;34.20;;;17.93;;
36855;SDS011;22788;51.434;6.786;2023-02-22T02:10:50;38.17;;;17.97;;
36855;SDS011;22788;51.434;6.786;2023-02-22T02:13:18;34.23;;;17.90;;
36855;SDS011;22788;51.434;6.786;2023-02-22T02:15:44;38.17;;;19.10;;
36855;SDS011;22788;51.434;6.786;2023-02-22T02:18:10;37.13;;;16.97;;
36855;SDS011;22788;51.434;6.786;2023-02-22T02:20:41;36.27;;;17.97;;
36855;SDS011;22788;51.434;6.786;2023-02-22T02:23:22;36.77;;;18.23;;
36855;SDS011;22788;51.434;6.786;2023-02-22T02:26:09;38.27;;;19.07;;
36855;SDS011;22788;51.434;6.786;2023-02-22T02:28:59;38.10;;;18.23;;
36855;SDS011;22788;51.434;6.786;2023-02-22T02:32:05;40.70;;;17.97;;
36855;SDS011;22788;51.434;6.786;2023-02-22T02:34:54;39.03;;;17.37;;
36855;SDS011;22788;51.434;6.786;2023-02-22T02:37:29;39.37;;;19.60;;
36855;SDS011;22788;51.434;6.786;2023-02-22T02:40:03;42.80;;;18.83;;
36855;SDS011;22788;51.434;6.786;2023-02-22T02:42:37;35.97;;;16.50;;
36855;SDS011;22788;51.434;6.786;2023-02-22T02:45:07;37.70;;;18.90;;
36855;SDS011;22788;51.434;6.786;2023-02-22T02:47:39;34.50;;;18.13;;
36855;SDS011;22788;51.434;6.786;2023-02-22T02:50:09;35.17;;;19.37;;
36855;SDS011;22788;51.434;6.786;2023-02-22T02:52:38;36.83;;;19.07;;
36855;SDS011;22788;51.434;6.786;2023-02-22T02:55:06;32.20;;;16.80;;
36855;SDS011;22788;51.434;6.786;2023-02-22T02:57:34;34.77;;;18.23;;
36855;SDS011;22788;51.434;6.786;2023-02-22T03:00:00;35.13;;;17.40;;
36855;SDS011;22788;51.434;6.786;2023-02-22T03:02:31;34.77;;;17.13;;
36855;SDS011;22788;51.434;6.786;2023-02-22T03:05:11;36.23;;;18.23;;
36855;SDS011;22788;51.434;6.786;2023-02-22T03:07:59;35.90;;;17.73;;
36855;SDS011;22788;51.434;6.786;2023-02-22T03:10:36;31.90;;;16.30;;
36855;SDS011;22788;51.434;6.786;2023-02-22T03:13:12;35.53;;;17.67;;
36855;SDS011;22788;51.434;6.786;2023-02-22T03:15:47;34.90;;;17.57;;
36855;SDS011;22788;51.434;6.786;2023-02-22T03:18:22;32.70;;;18.10;;
36855;SDS011;22788;51.434;6.786;2023-02-22T03:20:52;30.93;;;16.87;;
36855;SDS011;22788;51.434;6.786;2023-02-22T03:23:25;34.83;;;17.00;;
36855;SDS011;22788;51.434;6.786;2023-02-22T03:25:57;35.80;;;18.20;;
36855;SDS011;22788;51.434;6.786;2023-02-22T03:28:27;33.80;;;16.40;;
36855;SDS011;22788;51.434;6.786;2023-02-22T03:30:56;37.87;;;17.50;;
36855;SDS011;22788;51.434;6.786;2023-02-22T03:33:28;33.10;;;16.50;;
36855;SDS011;22788;51.434;6.786;2023-02-22T03:35:58;31.83;;;16.87;;
36855;SDS011;22788;51.434;6.786;2023-02-22T03:38:31;31.27;;;16.10;;
36855;SDS011;22788;51.434;6.786;2023-02-22T03:41:00;32.43;;;15.53;;
36855;SDS011;22788;51.434;6.786;2023-02-22T03:43:27;30.07;;;16.23;;
36855;SDS011;22788;51.434;6.786;2023-02-22T03:45:55;32.77;;;16.40;;
36855;SDS011;22788;51.434;6.786;2023-02-22T03:48:24;33.10;;;17.20;;
36855;SDS011;22788;51.434;6.786;2023-02-22T03:50:55;29.70;;;15.63;;
36855;SDS011;22788;51.434;6.786;2023-02-22T03:53:21;30.50;;;15.47;;
36855;SDS011;22788;51.434;6.786;2023-02-22T03:55:47;24.43;;;14.53;;
36855;SDS011;22788;51.434;6.786;2023-02-22T03:58:15;30.37;;;15.47;;
36855;SDS011;22788;51.434;6.786;2023-02-22T04:00:44;28.23;;;14.63;;
36855;SDS011;22788;51.434;6.786;2023-02-22T04:03:11;29.60;;;16.20;;
36855;SDS011;22788;51.434;6.786;2023-02-22T04:05:38;28.17;;;15.03;;
36855;SDS011;22788;51.434;6.786;2023-02-22T04:08:04;30.17;;;14.20;;
36855;SDS011;22788;51.434;6.786;2023-02-22T04:10:31;26.50;;;13.50;;
36855;SDS011;22788;51.434;6.786;2023-02-22T04:12:57;26.23;;;14.60;;
36855;SDS011;22788;51.434;6.786;2023-02-22T04:15:23;28.83;;;14.17;;
36855;SDS011;22788;51.434;6.786;2023-02-22T04:17:49;26.27;;;13.80;;
36855;SDS011;22788;51.434;6.786;2023-02-22T04:20:15;31.37;;;13.63;;
36855;SDS011;22788;51.434;6.786;2023-02-22T04:22:43;21.70;;;12.93;;
36855;SDS011;22788;51.434;6.786;2023-02-22T04:25:09;26.70;;;13.43;;
36855;SDS011;22788;51.434;6.786;2023-02-22T04:27:35;22.60;;;12.30;;
36855;SDS011;22788;51.434;6.786;2023-02-22T04:30:01;25.83;;;13.60;;
36855;SDS011;22788;51.434;6.786;2023-02-22T04:32:27;28.47;;;13.73;;
36855;SDS011;22788;51.434;6.786;2023-02-22T04:34:54;20.17;;;11.17;;
36855;SDS011;22788;51.434;6.786;2023-02-22T04:37:20;25.03;;;12.87;;
36855;SDS011;22788;51.434;6.786;2023-02-22T04:39:47;25.33;;;13.20;;
36855;SDS011;22788;51.434;6.786;2023-02-22T04:42:13;20.57;;;11.73;;
36855;SDS011;22788;51.434;6.786;2023-02-22T04:44:39;24.60;;;12.77;;
36855;SDS011;22788;51.434;6.786;2023-02-22T04:47:05;24.07;;;11.93;;
36855;SDS011;22788;51.434;6.786;2023-02-22T04:49:31;20.43;;;12.00;;
36855;SDS011;22788;51.434;6.786;2023-02-22T04:51:57;22.27;;;12.17;;
36855;SDS011;22788;51.434;6.786;2023-02-22T04:54:23;20.87;;;11.63;;
36855;SDS011;22788;51.434;6.786;2023-02-22T04:56:51;19.80;;;11.57;;
36855;SDS011;22788;51.434;6.786;2023-02-22T04:59:17;20.23;;;11.77;;
36855;SDS011;22788;51.434;6.786;2023-02-22T05:01:43;23.80;;;12.73;;
36855;SDS011;22788;51.434;6.786;2023-02-22T05:04:09;21.13;;;11.60;;
36855;SDS011;22788;51.434;6.786;2023-02-22T05:06:35;22.60;;;12.17;;
36855;SDS011;22788;51.434;6.786;2023-02-22T05:09:01;21.50;;;11.17;;
36855;SDS011;22788;51.434;6.786;2023-02-22T05:11:27;18.53;;;10.37;;
36855;SDS011;22788;51.434;6.786;2023-02-22T05:13:55;19.77;;;11.47;;
36855;SDS011;22788;51.434;6.786;2023-02-22T05:16:21;22.63;;;11.50;;
36855;SDS011;22788;51.434;6.786;2023-02-22T05:18:47;21.47;;;11.17;;
36855;SDS011;22788;51.434;6.786;2023-02-22T05:21:13;18.37;;;10.93;;
36855;SDS011;22788;51.434;6.786;2023-02-22T05:23:39;20.67;;;10.57;;
36855;SDS011;22788;51.434;6.786;2023-02-22T05:26:05;20.73;;;11.00;;
36855;SDS011;22788;51.434;6.786;2023-02-22T05:28:31;19.70;;;11.27;;
36855;SDS011;22788;51.434;6.786;2023-02-22T05:30:59;20.27;;;11.20;;
36855;SDS011;22788;51.434;6.786;2023-02-22T05:33:25;21.57;;;12.03;;
36855;SDS011;22788;51.434;6.786;2023-02-22T05:35:51;24.27;;;12.17;;
36855;SDS011;22788;51.434;6.786;2023-02-22T05:38:17;19.13;;;11.47;;
36855;SDS011;22788;51.434;6.786;2023-02-22T05:40:43;18.87;;;10.93;;
36855;SDS011;22788;51.434;6.786;2023-02-22T05:43:09;18.27;;;11.70;;
36855;SDS011;22788;51.434;6.786;2023-02-22T05:45:35;22.13;;;12.27;;
36855;SDS011;22788;51.434;6.786;2023-02-22T05:48:03;18.00;;;10.67;;
36855;SDS011;22788;51.434;6.786;2023-02-22T05:50:29;18.07;;;10.83;;
36855;SDS011;22788;51.434;6.786;2023-02-22T05:52:55;17.43;;;11.63;;
36855;SDS011;22788;51.434;6.786;2023-02-22T05:55:22;19.50;;;11.23;;
36855;SDS011;22788;51.434;6.786;2023-02-22T05:57:48;19.67;;;10.70;;
36855;SDS011;22788;51.434;6.786;2023-02-22T06:00:16;20.13;;;11.37;;
36855;SDS011;22788;51.434;6.786;2023-02-22T06:02:44;22.60;;;11.83;;
36855;SDS011;22788;51.434;6.786;2023-02-22T06:05:11;18.57;;;11.63;;
36855;SDS011;22788;51.434;6.786;2023-02-22T06:07:37;21.07;;;10.90;;
36855;SDS011;22788;51.434;6.786;2023-02-22T06:10:04;18.60;;;11.13;;
36855;SDS011;22788;51.434;6.786;2023-02-22T06:12:30;20.10;;;11.43;;
36855;SDS011;22788;51.434;6.786;2023-02-22T06:14:56;24.23;;;12.13;;
36855;SDS011;22788;51.434;6.786;2023-02-22T06:17:22;20.67;;;11.10;;
36855;SDS011;22788;51.434;6.786;2023-02-22T06:19:48;19.00;;;10.50;;
36855;SDS011;22788;51.434;6.786;2023-02-22T06:22:16;20.57;;;11.53;;
36855;SDS011;22788;51.434;6.786;2023-02-22T06:24:43;18.20;;;10.33;;
36855;SDS011;22788;51.434;6.786;2023-02-22T06:27:09;20.53;;;11.20;;
36855;SDS011;22788;51.434;6.786;2023-02-22T06:29:36;19.23;;;10.40;;
36855;SDS011;22788;51.434;6.786;2023-02-22T06:32:02;20.53;;;11.30;;
36855;SDS011;22788;51.434;6.786;2023-02-22T06:34:28;19.67;;;10.57;;
36855;SDS011;22788;51.434;6.786;2023-02-22T06:36:54;17.93;;;10.97;;
36855;SDS011;22788;51.434;6.786;2023-02-22T06:39:22;19.03;;;11.13;;
36855;SDS011;22788;51.434;6.786;2023-02-22T06:41:48;19.23;;;11.43;;
36855;SDS011;22788;51.434;6.786;2023-02-22T06:44:14;16.77;;;10.33;;
36855;SDS011;22788;51.434;6.786;2023-02-22T06:46:45;16.23;;;10.27;;
36855;SDS011;22788;51.434;6.786;2023-02-22T06:49:12;19.17;;;11.03;;
36855;SDS011;22788;51.434;6.786;2023-02-22T06:51:38;16.83;;;11.03;;
36855;SDS011;22788;51.434;6.786;2023-02-22T06:54:04;17.60;;;10.30;;
36855;SDS011;22788;51.434;6.786;2023-02-22T06:56:32;21.37;;;11.73;;
36855;SDS011;22788;51.434;6.786;2023-02-22T06:58:58;17.60;;;11.03;;
36855;SDS011;22788;51.434;6.786;2023-02-22T07:01:24;23.23;;;11.77;;
36855;SDS011;22788;51.434;6.786;2023-02-22T07:03:50;17.67;;;9.90;;
36855;SDS011;22788;51.434;6.786;2023-02-22T07:06:16;17.50;;;10.97;;
36855;SDS011;22788;51.434;6.786;2023-02-22T07:08:42;18.23;;;11.03;;
36855;SDS011;22788;51.434;6.786;2023-02-22T07:11:08;21.80;;;11.27;;
36855;SDS011;22788;51.434;6.786;2023-02-22T07:13:35;18.33;;;10.60;;
36855;SDS011;22788;51.434;6.786;2023-02-22T07:16:01;20.83;;;11.90;;
36855;SDS011;22788;51.434;6.786;2023-02-22T07:18:28;20.95;;;12.30;;
36855;SDS011;22788;51.434;6.786;2023-02-22T07:20:54;22.77;;;12.77;;
36855;SDS011;22788;51.434;6.786;2023-02-22T07:23:20;25.87;;;15.30;;
36855;SDS011;22788;51.434;6.786;2023-02-22T07:25:46;22.03;;;11.80;;
36855;SDS011;22788;51.434;6.786;2023-02-22T07:28:12;21.50;;;12.40;;
36855;SDS011;22788;51.434;6.786;2023-02-22T07:30:39;23.60;;;12.93;;
36855;SDS011;22788;51.434;6.786;2023-02-22T07:33:06;21.93;;;12.43;;
36855;SDS011;22788;51.434;6.786;2023-02-22T07:35:35;20.83;;;12.20;;
36855;SDS011;22788;51.434;6.786;2023-02-22T07:38:02;21.77;;;12.17;;
36855;SDS011;22788;51.434;6.786;2023-02-22T07:40:29;18.53;;;11.70;;
36855;SDS011;22788;51.434;6.786;2023-02-22T07:42:56;19.40;;;11.33;;
36855;SDS011;22788;51.434;6.786;2023-02-22T07:45:25;20.10;;;11.10;;
36855;SDS011;22788;51.434;6.786;2023-02-22T07:47:53;19.70;;;10.77;;
36855;SDS011;22788;51.434;6.786;2023-02-22T07:50:19;17.27;;;11.20;;
36855;SDS011;22788;51.434;6.786;2023-02-22T07:52:47;17.33;;;11.03;;
36855;SDS011;22788;51.434;6.786;2023-02-22T07:55:15;17.80;;;10.23;;
36855;SDS011;22788;51.434;6.786;2023-02-22T07:57:44;17.70;;;10.43;;
36855;SDS011;22788;51.434;6.786;2023-02-22T08:00:10;20.93;;;11.00;;
36855;SDS011;22788;51.434;6.786;2023-02-22T08:02:38;21.43;;;11.53;;
36855;SDS011;22788;51.434;6.786;2023-02-22T08:05:06;17.07;;;11.07;;
36855;SDS011;22788;51.434;6.786;2023-02-22T08:07:33;20.37;;;11.97;;
36855;SDS011;22788;51.434;6.786;2023-02-22T08:09:59;19.20;;;12.50;;
36855;SDS011;22788;51.434;6.786;2023-02-22T08:12:25;19.93;;;10.90;;
36855;SDS011;22788;51.434;6.786;2023-02-22T08:14:51;19.07;;;10.67;;
36855;SDS011;22788;51.434;6.786;2023-02-22T08:17:17;18.77;;;11.77;;
36855;SDS011;22788;51.434;6.786;2023-02-22T08:19:43;18.13;;;10.87;;
36855;SDS011;22788;51.434;6.786;2023-02-22T08:22:10;20.30;;;10.77;;
36855;SDS011;22788;51.434;6.786;2023-02-22T08:24:36;17.90;;;10.97;;
36855;SDS011;22788;51.434;6.786;2023-02-22T08:27:02;17.07;;;10.27;;
36855;SDS011;22788;51.434;6.786;2023-02-22T08:29:28;17.03;;;9.73;;
36855;SDS011;22788;51.434;6.786;2023-02-22T08:31:54;16.13;;;10.43;;
36855;SDS011;22788;51.434;6.786;2023-02-22T08:34:20;17.33;;;10.93;;
36855;SDS011;22788;51.434;6.786;2023-02-22T08:36:46;19.33;;;10.83;;
36855;SDS011;22788;51.434;6.786;2023-02-22T08:39:14;16.87;;;10.13;;
36855;SDS011;22788;51.434;6.786;2023-02-22T08:41:40;17.03;;;10.37;;
36855;SDS011;22788;51.434;6.786;2023-02-22T08:44:06;19.10;;;10.93;;
36855;SDS011;22788;51.434;6.786;2023-02-22T08:46:32;16.20;;;10.50;;
36855;SDS011;22788;51.434;6.786;2023-02-22T08:48:58;17.30;;;10.40;;
36855;SDS011;22788;51.434;6.786;2023-02-22T08:51:25;17.50;;;10.70;;
36855;SDS011;22788;51.434;6.786;2023-02-22T08:53:51;17.10;;;10.40;;
36855;SDS011;22788;51.434;6.786;2023-02-22T08:56:19;20.50;;;10.23;;
36855;SDS011;22788;51.434;6.786;2023-02-22T08:58:45;12.27;;;9.27;;
36855;SDS011;22788;51.434;6.786;2023-02-22T09:01:11;18.87;;;10.90;;
36855;SDS011;22788;51.434;6.786;2023-02-22T09:03:37;19.17;;;10.30;;
36855;SDS011;22788;51.434;6.786;2023-02-22T09:06:03;16.83;;;10.43;;
36855;SDS011;22788;51.434;6.786;2023-02-22T09:08:29;17.27;;;9.73;;
36855;SDS011;22788;51.434;6.786;2023-02-22T09:10:56;15.83;;;10.03;;
36855;SDS011;22788;51.434;6.786;2023-02-22T09:13:23;15.50;;;10.40;;
36855;SDS011;22788;51.434;6.786;2023-02-22T09:15:49;17.90;;;10.80;;
36855;SDS011;22788;51.434;6.786;2023-02-22T09:18:15;17.17;;;10.53;;
36855;SDS011;22788;51.434;6.786;2023-02-22T09:20:41;17.10;;;11.00;;
36855;SDS011;22788;51.434;6.786;2023-02-22T09:23:08;16.47;;;10.17;;
36855;SDS011;22788;51.434;6.786;2023-02-22T09:25:34;16.20;;;9.50;;
36855;SDS011;22788;51.434;6.786;2023-02-22T09:28:00;15.20;;;10.00;;
36855;SDS011;22788;51.434;6.786;2023-02-22T09:30:29;20.33;;;10.57;;
36855;SDS011;22788;51.434;6.786;2023-02-22T09:32:57;18.20;;;10.53;;
36855;SDS011;22788;51.434;6.786;2023-02-22T09:35:25;16.30;;;10.63;;
36855;SDS011;22788;51.434;6.786;2023-02-22T09:37:52;19.43;;;11.80;;
36855;SDS011;22788;51.434;6.786;2023-02-22T09:40:19;18.10;;;10.63;;
36855;SDS011;22788;51.434;6.786;2023-02-22T09:42:47;14.73;;;9.53;;
36855;SDS011;22788;51.434;6.786;2023-02-22T09:45:21;17.00;;;10.00;;
36855;SDS011;22788;51.434;6.786;2023-02-22T09:47:51;16.80;;;10.17;;
36855;SDS011;22788;51.434;6.786;2023-02-22T09:50:22;15.97;;;10.10;;
36855;SDS011;22788;51.434;6.786;2023-02-22T09:52:52;18.30;;;10.27;;
36855;SDS011;22788;51.434;6.786;2023-02-22T09:55:24;15.47;;;10.63;;
36855;SDS011;22788;51.434;6.786;2023-02-22T09:57:55;20.23;;;10.03;;
36855;SDS011;22788;51.434;6.786;2023-02-22T10:00:25;15.30;;;10.07;;
36855;SDS011;22788;51.434;6.786;2023-02-22T10:02:57;14.10;;;8.43;;
36855;SDS011;22788;51.434;6.786;2023-02-22T10:05:33;17.33;;;10.37;;
36855;SDS011;22788;51.434;6.786;2023-02-22T10:08:02;17.10;;;9.00;;
36855;SDS011;22788;51.434;6.786;2023-02-22T10:10:29;14.70;;;8.87;;
36855;SDS011;22788;51.434;6.786;2023-02-22T10:13:00;13.73;;;8.73;;
36855;SDS011;22788;51.434;6.786;2023-02-22T10:18:29;17.17;;;9.47;;
36855;SDS011;22788;51.434;6.786;2023-02-22T10:21:05;12.93;;;9.23;;
36855;SDS011;22788;51.434;6.786;2023-02-22T10:23:47;14.67;;;8.90;;
36855;SDS011;22788;51.434;6.786;2023-02-22T10:26:24;14.37;;;9.23;;
36855;SDS011;22788;51.434;6.786;2023-02-22T10:28:55;14.37;;;9.67;;
36855;SDS011;22788;51.434;6.786;2023-02-22T10:31:26;14.93;;;9.87;;
36855;SDS011;22788;51.434;6.786;2023-02-22T10:33:57;14.07;;;9.60;;
36855;SDS011;22788;51.434;6.786;2023-02-22T10:36:26;14.83;;;9.20;;
36855;SDS011;22788;51.434;6.786;2023-02-22T10:38:53;13.23;;;8.77;;
36855;SDS011;22788;51.434;6.786;2023-02-22T10:41:23;13.67;;;8.30;;
36855;SDS011;22788;51.434;6.786;2023-02-22T10:43:53;14.17;;;8.50;;
36855;SDS011;22788;51.434;6.786;2023-02-22T10:46:20;13.13;;;8.73;;
36855;SDS011;22788;51.434;6.786;2023-02-22T10:48:49;11.30;;;8.63;;
36855;SDS011;22788;51.434;6.786;2023-02-22T10:51:19;12.93;;;8.63;;
36855;SDS011;22788;51.434;6.786;2023-02-22T10:53:47;13.60;;;8.20;;
36855;SDS011;22788;51.434;6.786;2023-02-22T10:56:22;14.03;;;8.90;;
36855;SDS011;22788;51.434;6.786;2023-02-22T10:58:51;12.50;;;7.90;;
36855;SDS011;22788;51.434;6.786;2023-02-22T11:01:20;12.60;;;8.37;;
36855;SDS011;22788;51.434;6.786;2023-02-22T11:03:59;12.10;;;7.17;;
36855;SDS011;22788;51.434;6.786;2023-02-22T11:06:31;16.13;;;8.70;;
36855;SDS011;22788;51.434;6.786;2023-02-22T11:09:06;11.03;;;7.03;;
36855;SDS011;22788;51.434;6.786;2023-02-22T11:11:38;12.50;;;8.07;;
36855;SDS011;22788;51.434;6.786;2023-02-22T11:14:05;12.80;;;7.70;;
36855;SDS011;22788;51.434;6.786;2023-02-22T11:16:33;10.03;;;6.43;;
36855;SDS011;22788;51.434;6.786;2023-02-22T11:19:01;12.57;;;7.77;;
36855;SDS011;22788;51.434;6.786;2023-02-22T11:21:32;9.57;;;6.70;;
36855;SDS011;22788;51.434;6.786;2023-02-22T11:24:02;9.97;;;6.63;;
36855;SDS011;22788;51.434;6.786;2023-02-22T11:26:35;12.67;;;7.93;;
36855;SDS011;22788;51.434;6.786;2023-02-22T11:29:08;11.20;;;7.20;;
36855;SDS011;22788;51.434;6.786;2023-02-22T11:31:40;10.37;;;6.73;;
36855;SDS011;22788;51.434;6.786;2023-02-22T11:34:08;10.60;;;5.83;;
36855;SDS011;22788;51.434;6.786;2023-02-22T11:36:55;9.23;;;6.47;;
36855;SDS011;22788;51.434;6.786;2023-02-22T11:39:22;12.30;;;6.07;;
36855;SDS011;22788;51.434;6.786;2023-02-22T11:41:50;11.60;;;7.30;;
36855;SDS011;22788;51.434;6.786;2023-02-22T11:44:20;10.53;;;6.70;;
36855;SDS011;22788;51.434;6.786;2023-02-22T11:46:49;9.50;;;6.57;;
36855;SDS011;22788;51.434;6.786;2023-02-22T11:49:16;12.20;;;6.90;;
36855;SDS011;22788;51.434;6.786;2023-02-22T11:51:44;9.90;;;6.20;;
36855;SDS011;22788;51.434;6.786;2023-02-22T11:57:05;11.63;;;6.57;;
36855;SDS011;22788;51.434;6.786;2023-02-22T11:59:34;10.47;;;5.80;;
36855;SDS011;22788;51.434;6.786;2023-02-22T12:02:04;12.80;;;6.63;;
36855;SDS011;22788;51.434;6.786;2023-02-22T12:04:39;11.57;;;6.93;;
36855;SDS011;22788;51.434;6.786;2023-02-22T12:07:25;8.67;;;6.23;;
36855;SDS011;22788;51.434;6.786;2023-02-22T12:10:05;11.87;;;6.90;;
36855;SDS011;22788;51.434;6.786;2023-02-22T12:12:41;12.20;;;6.90;;
36855;SDS011;22788;51.434;6.786;2023-02-22T12:15:22;8.73;;;5.70;;
36855;SDS011;22788;51.434;6.786;2023-02-22T12:17:54;9.17;;;6.37;;
36855;SDS011;22788;51.434;6.786;2023-02-22T12:20:28;9.53;;;6.07;;
36855;SDS011;22788;51.434;6.786;2023-02-22T12:23:03;9.17;;;6.33;;
36855;SDS011;22788;51.434;6.786;2023-02-22T12:25:40;12.50;;;7.03;;
36855;SDS011;22788;51.434;6.786;2023-02-22T12:28:15;13.00;;;6.67;;
36855;SDS011;22788;51.434;6.786;2023-02-22T12:30:45;9.37;;;6.50;;
36855;SDS011;22788;51.434;6.786;2023-02-22T12:33:17;8.40;;;5.77;;
36855;SDS011;22788;51.434;6.786;2023-02-22T12:35:50;14.33;;;6.27;;
36855;SDS011;22788;51.434;6.786;2023-02-22T12:38:20;8.27;;;5.80;;
36855;SDS011;22788;51.434;6.786;2023-02-22T12:40:55;10.83;;;6.23;;
36855;SDS011;22788;51.434;6.786;2023-02-22T12:43:26;7.97;;;5.13;;
36855;SDS011;22788;51.434;6.786;2023-02-22T12:45:56;8.80;;;6.10;;
36855;SDS011;22788;51.434;6.786;2023-02-22T12:48:34;11.93;;;5.93;;
36855;SDS011;22788;51.434;6.786;2023-02-22T12:51:07;8.63;;;5.97;;
36855;SDS011;22788;51.434;6.786;2023-02-22T12:53:48;10.00;;;5.63;;
36855;SDS011;22788;51.434;6.786;2023-02-22T12:56:21;10.07;;;6.77;;
36855;SDS011;22788;51.434;6.786;2023-02-22T12:58:53;12.57;;;6.00;;
36855;SDS011;22788;51.434;6.786;2023-02-22T13:01:24;13.80;;;6.70;;
36855;SDS011;22788;51.434;6.786;2023-02-22T13:03:54;10.97;;;6.00;;
36855;SDS011;22788;51.434;6.786;2023-02-22T13:06:23;11.80;;;5.80;;
36855;SDS011;22788;51.434;6.786;2023-02-22T13:09:11;14.77;;;7.10;;
36855;SDS011;22788;51.434;6.786;2023-02-22T13:11:53;10.80;;;6.03;;
36855;SDS011;22788;51.434;6.786;2023-02-22T13:17:23;11.60;;;7.43;;
36855;SDS011;22788;51.434;6.786;2023-02-22T13:19:57;13.77;;;8.47;;
36855;SDS011;22788;51.434;6.786;2023-02-22T13:22:26;10.87;;;6.67;;
36855;SDS011;22788;51.434;6.786;2023-02-22T13:25:01;10.87;;;6.80;;
36855;SDS011;22788;51.434;6.786;2023-02-22T13:27:36;14.50;;;6.40;;
36855;SDS011;22788;51.434;6.786;2023-02-22T13:30:12;9.10;;;5.20;;
36855;SDS011;22788;51.434;6.786;2023-02-22T13:32:50;8.13;;;5.40;;
36855;SDS011;22788;51.434;6.786;2023-02-22T13:35:33;10.10;;;6.13;;
36855;SDS011;22788;51.434;6.786;2023-02-22T13:38:22;11.13;;;6.70;;
36855;SDS011;22788;51.434;6.786;2023-02-22T13:41:07;8.50;;;6.10;;
36855;SDS011;22788;51.434;6.786;2023-02-22T13:43:50;10.60;;;7.10;;
36855;SDS011;22788;51.434;6.786;2023-02-22T13:46:35;8.40;;;5.30;;
36855;SDS011;22788;51.434;6.786;2023-02-22T13:49:20;10.93;;;6.27;;
36855;SDS011;22788;51.434;6.786;2023-02-22T13:51:59;11.07;;;6.90;;
36855;SDS011;22788;51.434;6.786;2023-02-22T13:54:28;11.70;;;6.30;;
36855;SDS011;22788;51.434;6.786;2023-02-22T13:57:01;10.37;;;6.60;;
36855;SDS011;22788;51.434;6.786;2023-02-22T13:59:30;8.87;;;6.50;;
36855;SDS011;22788;51.434;6.786;2023-02-22T14:01:58;10.77;;;6.90;;
36855;SDS011;22788;51.434;6.786;2023-02-22T14:04:34;12.90;;;7.63;;
36855;SDS011;22788;51.434;6.786;2023-02-22T14:07:02;10.80;;;6.83;;
36855;SDS011;22788;51.434;6.786;2023-02-22T14:09:49;13.67;;;7.23;;
36855;SDS011;22788;51.434;6.786;2023-02-22T14:15:14;10.03;;;6.73;;
36855;SDS011;22788;51.434;6.786;2023-02-22T14:17:41;14.00;;;7.10;;
36855;SDS011;22788;51.434;6.786;2023-02-22T14:20:19;11.67;;;7.57;;
36855;SDS011;22788;51.434;6.786;2023-02-22T14:22:50;9.23;;;6.27;;
36855;SDS011;22788;51.434;6.786;2023-02-22T14:25:30;15.47;;;7.60;;
36855;SDS011;22788;51.434;6.786;2023-02-22T14:27:58;11.77;;;6.80;;
36855;SDS011;22788;51.434;6.786;2023-02-22T14:30:27;12.93;;;7.37;;
36855;SDS011;22788;51.434;6.786;2023-02-22T14:32:55;9.67;;;7.17;;
36855;SDS011;22788;51.434;6.786;2023-02-22T14:35:21;11.33;;;7.40;;
36855;SDS011;22788;51.434;6.786;2023-02-22T14:37:51;7.87;;;6.40;;
36855;SDS011;22788;51.434;6.786;2023-02-22T14:40:20;10.33;;;7.43;;
36855;SDS011;22788;51.434;6.786;2023-02-22T14:42:49;13.30;;;7.53;;
36855;SDS011;22788;51.434;6.786;2023-02-22T14:45:23;10.10;;;6.27;;
36855;SDS011;22788;51.434;6.786;2023-02-22T14:47:54;9.80;;;6.33;;
36855;SDS011;22788;51.434;6.786;2023-02-22T14:50:39;11.47;;;6.37;;